Time;durP1;ratioP1;P1;durP2;ratioP2;P2;SDS_P1;SDS_P2;PMS_P1;PMS_P2;Temp;Humidity;BMP_temperature;BMP_pressure;BME280_temperature;BME280_humidity;BME280_pressure;Samples;Min_cycle;Max_cycle;Signal;HPM_P1;HPM_P2
2021/12/01 00:00:19;;;;;;;;;;;;;;;;;;5095196;28;19954;-67
2021/12/01 00:02:45;;;;;;;;;;;;;;;;;;5076627;28;19919;-67
2021/12/01 00:05:11;;;;;;;;;;;;;;;;;;5095623;28;19920;-67
2021/12/01 00:07:37;;;;;;;;;;;;;;;;;;5095596;28;19909;-67
2021/12/01 00:10:02;;;;;;;;;;;;;;;;;;5094716;28;19969;-67
2021/12/01 00:12:28;;;;;;;;;;;;;;;;;;5095170;28;19966;-67
2021/12/01 00:14:54;;;;;;;;;;;;;;;;;;5095244;28;20003;-67
2021/12/01 00:17:20;;;;;;;;;;;;;;;;;;5095195;28;19977;-67
2021/12/01 00:19:46;;;;;;;;;;;;;;;;;;5077226;28;19946;-67
2021/12/01 00:22:12;;;;;;;;;;;;;;;;;;5077802;28;19909;-68
2021/12/01 00:24:38;;;;;;;;;;;;;;;;;;5096254;28;19915;-67
2021/12/01 00:27:04;;;;;;;;;;;;;;;;;;5095593;28;19926;-67
2021/12/01 00:29:29;;;;;;;;;;;;;;;;;;5076998;28;19908;-67
2021/12/01 00:31:55;;;;;;;;;;;;;;;;;;5095075;28;19912;-67
2021/12/01 00:34:21;;;;;;;;;;;;;;;;;;5095221;28;19912;-67
2021/12/01 00:36:47;;;;;;;;;;;;;;;;;;5094444;28;19953;-67
2021/12/01 00:39:13;;;;;;;;;;;;;;;;;;5094836;28;19916;-67
2021/12/01 00:41:39;;;;;;;;;;;;;;;;;;5094895;28;19908;-67
2021/12/01 00:44:07;;;;;;;;;;;;;;;;;;5094767;28;19912;-67
2021/12/01 00:46:41;;;;;;;;;;;;;;;;;;5094246;28;19916;-67
2021/12/01 00:49:07;;;;;;;;;;;;;;;;;;5094882;28;19908;-67
2021/12/01 00:51:33;;;;;;;;;;;;;;;;;;5094744;28;19904;-67
2021/12/01 00:53:59;;;;;;;;;;;;;;;;;;5094627;28;19961;-67
2021/12/01 00:56:25;;;;;;;;;;;;;;;;;;5094406;28;20376;-67
2021/12/01 00:58:51;;;;;;;;;;;;;;;;;;5073577;28;19912;-67
2021/12/01 01:01:17;;;;;;;;;;;;;;;;;;5082734;28;19932;-67
2021/12/01 01:03:43;;;;;;;;;;;;;;;;;;5083730;28;19912;-67
2021/12/01 01:06:09;;;;;;;;;;;;;;;;;;5083181;28;19927;-67
2021/12/01 01:08:35;;;;;;;;;;;;;;;;;;5082827;28;20286;-67
2021/12/01 01:16:23;;;;;;;;;;;;;;;;;;5082841;28;19919;-67
2021/12/01 01:18:49;;;;;;;;;;;;;;;;;;5084699;28;20025;-67
2021/12/01 01:21:15;;;;;;;;;;;;;;;;;;5084705;28;19956;-67
2021/12/01 01:23:41;;;;;;;;;;;;;;;;;;5082573;28;19912;-67
2021/12/01 01:26:07;;;;;;;;;;;;;;;;;;5082900;28;19969;-67
2021/12/01 01:28:32;;;;;;;;;;;;;;;;;;5083793;28;19935;-67
2021/12/01 01:30:58;;;;;;;;;;;;;;;;;;5081423;28;19912;-67
2021/12/01 01:33:24;;;;;;;;;;;;;;;;;;5084037;28;19912;-67
2021/12/01 01:35:50;;;;;;;;;;;;;;;;;;5081141;28;19917;-67
2021/12/01 01:38:16;;;;;;;;;;;;;;;;;;5083655;28;20338;-67
2021/12/01 01:40:42;;;;;;;;;;;;;;;;;;5082100;28;20044;-67
2021/12/01 01:43:08;;;;;;;;;;;;;;;;;;5082271;28;19944;-67
2021/12/01 01:45:33;;;;;;;;;;;;;;;;;;5083490;28;19919;-67
2021/12/01 01:48:01;;;;;;;;;;;;;;;;;;5063359;28;19913;-67
2021/12/01 01:50:36;;;;;;;;;;;;;;;;;;5084204;28;19919;-67
2021/12/01 01:53:02;;;;;;;;;;;;;;;;;;5081334;28;19912;-67
2021/12/01 01:55:28;;;;;;;;;;;;;;;;;;5084270;28;20279;-67
2021/12/01 01:57:53;;;;;;;;;;;;;;;;;;5080702;28;19919;-67
2021/12/01 02:00:19;;;;;;;;;;;;;;;;;;5083931;28;20007;-67
2021/12/01 02:02:46;;;;;;;;;;;;;;;;;;5081437;28;19917;-67
2021/12/01 02:05:12;;;;;;;;;;;;;;;;;;5082724;28;19923;-67
2021/12/01 02:07:38;;;;;;;;;;;;;;;;;;5082210;28;19923;-67
2021/12/01 02:10:04;;;;;;;;;;;;;;;;;;5081567;28;19916;-67
2021/12/01 02:12:30;;;;;;;;;;;;;;;;;;5083295;28;19920;-67
2021/12/01 02:14:56;;;;;;;;;;;;;;;;;;5080775;28;19992;-67
2021/12/01 02:17:22;;;;;;;;;;;;;;;;;;5084030;28;19916;-67
2021/12/01 02:19:48;;;;;;;;;;;;;;;;;;5080952;28;19912;-67
2021/12/01 02:22:14;;;;;;;;;;;;;;;;;;5082669;28;19917;-67
2021/12/01 02:24:39;;;;;;;;;;;;;;;;;;5082066;28;20336;-67
2021/12/01 02:27:06;;;;;;;;;;;;;;;;;;5081469;28;19974;-67
2021/12/01 02:29:32;;;;;;;;;;;;;;;;;;5083116;28;19920;-67
2021/12/01 02:31:57;;;;;;;;;;;;;;;;;;5082505;28;19912;-67
2021/12/01 02:34:23;;;;;;;;;;;;;;;;;;5090394;28;19923;-67
2021/12/01 02:36:49;;;;;;;;;;;;;;;;;;5087022;28;19965;-67
2021/12/01 02:39:16;;;;;;;;;;;;;;;;;;5089625;28;19977;-67
2021/12/01 02:41:42;;;;;;;;;;;;;;;;;;5088381;28;19912;-67
2021/12/01 02:44:08;;;;;;;;;;;;;;;;;;5088613;28;20280;-67
2021/12/01 02:46:34;;;;;;;;;;;;;;;;;;5089739;28;19924;-68
2021/12/01 02:49:00;;;;;;;;;;;;;;;;;;5087253;28;19951;-67
2021/12/01 02:51:28;;;;;;;;;;;;;;;;;;5090083;28;19916;-67
2021/12/01 02:53:54;;;;;;;;;;;;;;;;;;5086888;28;20284;-67
2021/12/01 02:56:21;;;;;;;;;;;;;;;;;;5072006;28;19998;-67
2021/12/01 02:58:47;;;;;;;;;;;;;;;;;;5087408;28;19924;-67
2021/12/01 03:01:13;;;;;;;;;;;;;;;;;;5089040;28;19912;-67
2021/12/01 03:03:39;;;;;;;;;;;;;;;;;;5088315;28;20367;-67
2021/12/01 03:06:04;;;;;;;;;;;;;;;;;;5087381;28;19966;-67
2021/12/01 03:08:30;;;;;;;;;;;;;;;;;;5089694;28;19919;-67
2021/12/01 03:10:56;;;;;;;;;;;;;;;;;;5086494;28;19917;-67
2021/12/01 03:13:22;;;;;;;;;;;;;;;;;;5090279;28;19913;-67
2021/12/01 03:15:48;;;;;;;;;;;;;;;;;;5087099;28;19966;-67
2021/12/01 03:18:14;;;;;;;;;;;;;;;;;;5088963;28;19913;-67
2021/12/01 03:20:40;;;;;;;;;;;;;;;;;;5087423;28;20629;-67
2021/12/01 03:23:08;;;;;;;;;;;;;;;;;;5087551;28;21255;-67
2021/12/01 03:25:33;;;;;;;;;;;;;;;;;;5070698;28;19927;-67
2021/12/01 03:27:59;;;;;;;;;;;;;;;;;;5087417;28;19916;-67
2021/12/01 03:30:25;;;;;;;;;;;;;;;;;;5090025;28;19922;-67
2021/12/01 03:32:51;;;;;;;;;;;;;;;;;;5086452;28;19927;-67
2021/12/01 03:35:17;;;;;;;;;;;;;;;;;;5089175;28;20018;-67
2021/12/01 03:37:43;;;;;;;;;;;;;;;;;;5087583;28;19912;-67
2021/12/01 03:40:09;;;;;;;;;;;;;;;;;;5088077;28;19913;-67
2021/12/01 03:42:34;;;;;;;;;;;;;;;;;;5088673;28;20372;-67
2021/12/01 03:45:00;;;;;;;;;;;;;;;;;;5082356;28;19920;-67
2021/12/01 03:47:26;;;;;;;;;;;;;;;;;;5086468;28;19927;-67
2021/12/01 03:49:52;;;;;;;;;;;;;;;;;;5065096;28;20442;-67
2021/12/01 03:52:18;;;;;;;;;;;;;;;;;;5085620;28;19919;-67
2021/12/01 03:54:44;;;;;;;;;;;;;;;;;;5065952;28;20010;-67
2021/12/01 03:57:10;;;;;;;;;;;;;;;;;;5084863;28;20125;-67
2021/12/01 03:59:36;;;;;;;;;;;;;;;;;;5085212;28;19916;-67
2021/12/01 04:02:02;;;;;;;;;;;;;;;;;;5083516;28;19995;-67
2021/12/01 04:04:28;;;;;;;;;;;;;;;;;;5085854;28;19913;-67
2021/12/01 04:06:54;;;;;;;;;;;;;;;;;;5082787;28;19943;-67
2021/12/01 04:09:19;;;;;;;;;;;;;;;;;;5085806;28;19916;-67
2021/12/01 04:11:45;;;;;;;;;;;;;;;;;;5083259;28;20011;-67
2021/12/01 04:14:11;;;;;;;;;;;;;;;;;;5084715;28;19913;-67
2021/12/01 04:16:37;;;;;;;;;;;;;;;;;;5084317;28;19912;-67
2021/12/01 04:19:03;;;;;;;;;;;;;;;;;;5082978;28;19991;-67
2021/12/01 04:21:29;;;;;;;;;;;;;;;;;;5085547;28;19966;-67
2021/12/01 04:23:55;;;;;;;;;;;;;;;;;;5082429;28;19913;-67
2021/12/01 04:26:23;;;;;;;;;;;;;;;;;;5086509;28;20287;-67
2021/12/01 04:28:49;;;;;;;;;;;;;;;;;;5085743;28;19923;-67
2021/12/01 04:31:15;;;;;;;;;;;;;;;;;;5082635;28;19916;-67
2021/12/01 04:33:41;;;;;;;;;;;;;;;;;;5084100;28;20376;-67
2021/12/01 04:36:08;;;;;;;;;;;;;;;;;;5083763;28;19965;-67
2021/12/01 04:38:34;;;;;;;;;;;;;;;;;;5083366;28;19986;-67
2021/12/01 04:41:01;;;;;;;;;;;;;;;;;;5085124;28;19924;-67
2021/12/01 04:43:27;;;;;;;;;;;;;;;;;;5082150;28;20487;-67
2021/12/01 04:45:58;;;;;;;;;;;;;;;;;;5085380;28;19924;-67
2021/12/01 04:48:24;;;;;;;;;;;;;;;;;;5078483;28;19947;-67
2021/12/01 04:50:50;;;;;;;;;;;;;;;;;;5084656;28;20361;-67
2021/12/01 04:53:16;;;;;;;;;;;;;;;;;;5082513;28;19998;-67
2021/12/01 04:55:42;;;;;;;;;;;;;;;;;;5083656;28;19912;-67
2021/12/01 04:58:07;;;;;;;;;;;;;;;;;;5083476;28;19955;-67
2021/12/01 05:00:35;;;;;;;;;;;;;;;;;;5082746;28;20292;-68
2021/12/01 05:03:01;;;;;;;;;;;;;;;;;;5085311;28;19912;-68
2021/12/01 05:05:27;;;;;;;;;;;;;;;;;;5082512;28;19923;-68
2021/12/01 05:07:53;;;;;;;;;;;;;;;;;;5094438;28;19934;-67
2021/12/01 05:10:19;;;;;;;;;;;;;;;;;;5094148;28;19961;-67
2021/12/01 05:12:45;;;;;;;;;;;;;;;;;;5094265;28;19939;-67
2021/12/01 05:15:11;;;;;;;;;;;;;;;;;;5093779;28;19908;-67
2021/12/01 05:17:37;;;;;;;;;;;;;;;;;;5094363;28;19908;-67
2021/12/01 05:20:04;;;;;;;;;;;;;;;;;;5094164;28;19960;-67
2021/12/01 05:22:30;;;;;;;;;;;;;;;;;;5094020;28;19910;-67
2021/12/01 05:24:56;;;;;;;;;;;;;;;;;;5094123;28;19919;-67
2021/12/01 05:27:22;;;;;;;;;;;;;;;;;;5093670;28;20017;-67
2021/12/01 05:29:48;;;;;;;;;;;;;;;;;;5093955;28;20377;-67
2021/12/01 05:32:14;;;;;;;;;;;;;;;;;;5094003;28;20275;-67
2021/12/01 05:34:40;;;;;;;;;;;;;;;;;;5093964;28;19908;-67
2021/12/01 05:37:06;;;;;;;;;;;;;;;;;;5093914;28;20367;-67
2021/12/01 05:39:32;;;;;;;;;;;;;;;;;;5093798;28;20272;-67
2021/12/01 05:41:58;;;;;;;;;;;;;;;;;;5093709;28;19912;-67
2021/12/01 05:44:24;;;;;;;;;;;;;;;;;;5093358;28;20082;-67
2021/12/01 05:46:50;;;;;;;;;;;;;;;;;;5093796;28;19923;-67
2021/12/01 05:49:15;;;;;;;;;;;;;;;;;;5093642;28;19912;-67
2021/12/01 05:51:42;;;;;;;;;;;;;;;;;;5093630;28;19908;-67
2021/12/01 05:54:08;;;;;;;;;;;;;;;;;;5093732;28;19908;-67
2021/12/01 05:56:34;;;;;;;;;;;;;;;;;;5075214;28;19915;-68
2021/12/01 05:59:00;;;;;;;;;;;;;;;;;;5093247;28;19951;-67
2021/12/01 06:01:25;;;;;;;;;;;;;;;;;;5093045;28;20037;-67
2021/12/01 06:03:51;;;;;;;;;;;;;;;;;;5093381;28;19915;-67
2021/12/01 06:06:17;;;;;;;;;;;;;;;;;;5092952;28;20607;-67
2021/12/01 06:08:43;;;;;;;;;;;;;;;;;;5093106;28;19934;-67
2021/12/01 06:11:09;;;;;;;;;;;;;;;;;;5092922;28;20364;-67
2021/12/01 06:13:35;;;;;;;;;;;;;;;;;;5093155;28;19915;-67
2021/12/01 06:16:01;;;;;;;;;;;;;;;;;;5093251;28;19999;-67
2021/12/01 06:18:29;;;;;;;;;;;;;;;;;;5093125;28;19908;-67
2021/12/01 06:20:55;;;;;;;;;;;;;;;;;;5074546;28;19919;-67
2021/12/01 06:23:21;;;;;;;;;;;;;;;;;;5093316;28;19915;-67
2021/12/01 06:25:47;;;;;;;;;;;;;;;;;;5093027;28;20007;-67
2021/12/01 06:28:13;;;;;;;;;;;;;;;;;;5093028;28;19966;-67
2021/12/01 06:30:39;;;;;;;;;;;;;;;;;;5093203;28;20002;-67
2021/12/01 06:33:05;;;;;;;;;;;;;;;;;;5074925;28;20268;-67
2021/12/01 06:35:31;;;;;;;;;;;;;;;;;;5093021;28;19908;-67
2021/12/01 06:37:57;;;;;;;;;;;;;;;;;;5093013;28;19908;-67
2021/12/01 06:40:22;;;;;;;;;;;;;;;;;;5092704;28;19908;-67
2021/12/01 06:42:48;;;;;;;;;;;;;;;;;;5074593;28;19908;-67
2021/12/01 06:45:16;;;;;;;;;;;;;;;;;;5093179;28;19908;-67
2021/12/01 06:47:42;;;;;;;;;;;;;;;;;;5093042;28;19916;-67
2021/12/01 06:50:08;;;;;;;;;;;;;;;;;;5093207;28;20300;-67
2021/12/01 06:52:34;;;;;;;;;;;;;;;;;;5092879;28;19943;-67
2021/12/01 06:55:00;;;;;;;;;;;;;;;;;;5092798;28;19908;-67
2021/12/01 06:57:26;;;;;;;;;;;;;;;;;;5092784;28;19937;-67
2021/12/01 06:59:51;;;;;;;;;;;;;;;;;;5077922;28;19920;-67
2021/12/01 07:02:17;;;;;;;;;;;;;;;;;;5072038;28;19909;-67
2021/12/01 07:04:43;;;;;;;;;;;;;;;;;;5072576;28;19966;-67
2021/12/01 07:07:09;;;;;;;;;;;;;;;;;;5072473;28;20006;-67
2021/12/01 07:09:35;;;;;;;;;;;;;;;;;;5054468;28;20003;-67
2021/12/01 07:12:01;;;;;;;;;;;;;;;;;;5072289;28;19920;-67
2021/12/01 07:14:27;;;;;;;;;;;;;;;;;;5072557;28;20349;-67
2021/12/01 07:16:53;;;;;;;;;;;;;;;;;;5072490;28;19916;-67
2021/12/01 07:19:19;;;;;;;;;;;;;;;;;;5074929;28;19908;-67
2021/12/01 07:21:45;;;;;;;;;;;;;;;;;;5076182;28;19908;-67
2021/12/01 07:24:11;;;;;;;;;;;;;;;;;;5076688;28;20003;-68
2021/12/01 07:26:37;;;;;;;;;;;;;;;;;;5076497;28;19916;-68
2021/12/01 07:29:02;;;;;;;;;;;;;;;;;;5076114;28;19908;-67
2021/12/01 07:31:28;;;;;;;;;;;;;;;;;;5075929;28;19954;-67
2021/12/01 07:33:54;;;;;;;;;;;;;;;;;;5058195;28;19923;-67
2021/12/01 07:36:20;;;;;;;;;;;;;;;;;;5075768;28;19909;-67
2021/12/01 07:38:46;;;;;;;;;;;;;;;;;;5075782;28;20377;-67
2021/12/01 07:41:12;;;;;;;;;;;;;;;;;;5075697;28;19912;-67
2021/12/01 07:43:37;;;;;;;;;;;;;;;;;;5075824;28;19958;-67
2021/12/01 07:46:03;;;;;;;;;;;;;;;;;;5075784;28;20401;-67
2021/12/01 07:48:30;;;;;;;;;;;;;;;;;;5075565;28;20040;-67
2021/12/01 07:50:56;;;;;;;;;;;;;;;;;;5075768;28;19913;-67
2021/12/01 07:53:22;;;;;;;;;;;;;;;;;;5057515;28;20361;-67
2021/12/01 07:55:47;;;;;;;;;;;;;;;;;;5075709;28;19908;-67
2021/12/01 07:58:13;;;;;;;;;;;;;;;;;;5075743;28;19908;-67
2021/12/01 08:00:39;;;;;;;;;;;;;;;;;;5075486;28;20261;-67
2021/12/01 08:03:05;;;;;;;;;;;;;;;;;;5075494;28;19908;-67
2021/12/01 08:05:31;;;;;;;;;;;;;;;;;;5075346;28;19958;-67
2021/12/01 08:07:57;;;;;;;;;;;;;;;;;;5075368;28;19926;-67
2021/12/01 08:10:23;;;;;;;;;;;;;;;;;;5074782;28;19961;-67
2021/12/01 08:12:48;;;;;;;;;;;;;;;;;;5075370;28;20269;-67
2021/12/01 08:15:14;;;;;;;;;;;;;;;;;;5075193;28;20003;-67
2021/12/01 08:17:40;;;;;;;;;;;;;;;;;;5075330;28;19915;-67
2021/12/01 08:20:06;;;;;;;;;;;;;;;;;;5057293;28;19912;-67
2021/12/01 08:22:32;;;;;;;;;;;;;;;;;;5075029;28;19920;-67
2021/12/01 08:24:58;;;;;;;;;;;;;;;;;;5075093;28;20271;-67
2021/12/01 08:27:24;;;;;;;;;;;;;;;;;;5075063;28;19916;-67
2021/12/01 08:29:50;;;;;;;;;;;;;;;;;;5074346;28;19944;-67
2021/12/01 08:32:15;;;;;;;;;;;;;;;;;;5056379;28;19912;-67
2021/12/01 08:34:41;;;;;;;;;;;;;;;;;;5074617;28;19995;-67
2021/12/01 08:37:08;;;;;;;;;;;;;;;;;;5074768;28;19913;-67
2021/12/01 08:39:34;;;;;;;;;;;;;;;;;;5074809;28;20003;-67
2021/12/01 08:42:00;;;;;;;;;;;;;;;;;;5074605;28;19951;-67
2021/12/01 08:44:26;;;;;;;;;;;;;;;;;;5073894;28;19942;-67
2021/12/01 08:46:52;;;;;;;;;;;;;;;;;;5074132;28;20026;-67
2021/12/01 08:49:18;;;;;;;;;;;;;;;;;;5074064;28;20422;-67
2021/12/01 08:51:44;;;;;;;;;;;;;;;;;;5073931;28;20003;-67
2021/12/01 08:54:13;;;;;;;;;;;;;;;;;;5074111;28;19916;-67
2021/12/01 08:56:39;;;;;;;;;;;;;;;;;;5074004;28;19908;-67
2021/12/01 08:59:05;;;;;;;;;;;;;;;;;;5056238;28;19909;-67
2021/12/01 09:01:31;;;;;;;;;;;;;;;;;;5074157;28;20007;-67
2021/12/01 09:03:57;;;;;;;;;;;;;;;;;;5056385;28;19915;-67
2021/12/01 09:06:22;;;;;;;;;;;;;;;;;;5074550;28;20408;-67
2021/12/01 09:08:48;;;;;;;;;;;;;;;;;;5074207;28;20353;-67
2021/12/01 09:11:14;;;;;;;;;;;;;;;;;;5073895;28;19931;-67
2021/12/01 09:13:40;;;;;;;;;;;;;;;;;;5074131;28;19927;-67
2021/12/01 09:16:06;;;;;;;;;;;;;;;;;;5074238;28;19958;-67
2021/12/01 09:18:33;;;;;;;;;;;;;;;;;;5073952;28;20311;-67
2021/12/01 09:20:59;;;;;;;;;;;;;;;;;;5073769;28;19913;-67
2021/12/01 09:23:25;;;;;;;;;;;;;;;;;;5073926;28;19935;-67
2021/12/01 09:25:51;;;;;;;;;;;;;;;;;;5074120;28;19923;-67
2021/12/01 09:28:17;;;;;;;;;;;;;;;;;;5072724;28;19913;-67
2021/12/01 09:30:42;;;;;;;;;;;;;;;;;;5073730;28;19908;-68
2021/12/01 09:33:08;;;;;;;;;;;;;;;;;;5073604;28;19916;-67
2021/12/01 09:35:34;;;;;;;;;;;;;;;;;;5073549;28;19956;-67
2021/12/01 09:38:00;;;;;;;;;;;;;;;;;;5073652;28;19908;-65
2021/12/01 09:40:26;;;;;;;;;;;;;;;;;;5073687;28;20308;-67
2021/12/01 09:42:52;;;;;;;;;;;;;;;;;;5073878;28;19928;-67
2021/12/01 09:45:18;;;;;;;;;;;;;;;;;;5075754;28;20006;-67
2021/12/01 09:47:44;;;;;;;;;;;;;;;;;;5073150;28;19946;-67
2021/12/01 09:50:10;;;;;;;;;;;;;;;;;;5073128;28;20327;-67
2021/12/01 09:52:35;;;;;;;;;;;;;;;;;;5073558;28;19908;-67
2021/12/01 09:55:01;;;;;;;;;;;;;;;;;;5073463;28;19904;-67
2021/12/01 09:57:27;;;;;;;;;;;;;;;;;;5073813;28;19909;-67
2021/12/01 09:59:53;;;;;;;;;;;;;;;;;;5073380;28;20271;-67
2021/12/01 10:02:19;;;;;;;;;;;;;;;;;;5073165;28;19912;-67
2021/12/01 10:04:45;;;;;;;;;;;;;;;;;;5073083;28;19904;-67
2021/12/01 10:07:11;;;;;;;;;;;;;;;;;;5073322;28;19952;-67
2021/12/01 10:09:36;;;;;;;;;;;;;;;;;;5073152;28;20372;-67
2021/12/01 10:12:02;;;;;;;;;;;;;;;;;;5073020;28;19920;-67
2021/12/01 10:14:28;;;;;;;;;;;;;;;;;;5073160;28;20023;-67
2021/12/01 10:16:55;;;;;;;;;;;;;;;;;;5073017;28;19915;-67
2021/12/01 10:19:20;;;;;;;;;;;;;;;;;;5072633;28;20331;-66
2021/12/01 10:21:49;;;;;;;;;;;;;;;;;;5055124;28;19912;-66
2021/12/01 10:24:15;;;;;;;;;;;;;;;;;;5055251;28;19908;-67
2021/12/01 10:26:41;;;;;;;;;;;;;;;;;;5072143;28;19925;-67
2021/12/01 10:29:08;;;;;;;;;;;;;;;;;;5072890;28;19916;-67
2021/12/01 10:31:34;;;;;;;;;;;;;;;;;;5072823;28;19909;-67
2021/12/01 10:34:00;;;;;;;;;;;;;;;;;;5072800;28;20275;-67
2021/12/01 10:36:26;;;;;;;;;;;;;;;;;;5072590;28;20059;-67
2021/12/01 10:38:52;;;;;;;;;;;;;;;;;;5072919;28;20276;-67
2021/12/01 10:41:18;;;;;;;;;;;;;;;;;;5054847;28;19916;-67
2021/12/01 10:43:44;;;;;;;;;;;;;;;;;;5072969;28;19934;-67
2021/12/01 10:46:10;;;;;;;;;;;;;;;;;;5072691;28;19912;-67
2021/12/01 10:48:36;;;;;;;;;;;;;;;;;;5054753;28;20006;-67
2021/12/01 10:51:02;;;;;;;;;;;;;;;;;;5072712;28;20261;-67
2021/12/01 10:53:29;;;;;;;;;;;;;;;;;;5074392;28;19913;-67
2021/12/01 10:55:55;;;;;;;;;;;;;;;;;;5076952;28;19997;-67
2021/12/01 10:58:21;;;;;;;;;;;;;;;;;;5076730;28;19978;-67
2021/12/01 11:00:47;;;;;;;;;;;;;;;;;;5066538;28;19908;-64
2021/12/01 11:03:13;;;;;;;;;;;;;;;;;;5056092;28;20349;-66
2021/12/01 11:05:39;;;;;;;;;;;;;;;;;;5056633;28;19917;-67
2021/12/01 11:08:05;;;;;;;;;;;;;;;;;;5056324;28;19913;-67
2021/12/01 11:10:30;;;;;;;;;;;;;;;;;;5057414;28;19936;-67
2021/12/01 11:12:56;;;;;;;;;;;;;;;;;;5076712;28;20007;-69
2021/12/01 11:15:22;;;;;;;;;;;;;;;;;;5058278;28;19938;-65
2021/12/01 11:17:48;;;;;;;;;;;;;;;;;;5076196;28;19908;-69
2021/12/01 11:20:14;;;;;;;;;;;;;;;;;;5076220;28;19954;-68
2021/12/01 11:22:40;;;;;;;;;;;;;;;;;;5076117;28;20356;-68
2021/12/01 11:25:06;;;;;;;;;;;;;;;;;;5075980;28;19912;-68
2021/12/01 11:27:32;;;;;;;;;;;;;;;;;;5076154;28;19917;-67
2021/12/01 11:29:57;;;;;;;;;;;;;;;;;;5075927;28;19908;-68
2021/12/01 11:32:23;;;;;;;;;;;;;;;;;;5075524;28;19916;-66
2021/12/01 11:34:49;;;;;;;;;;;;;;;;;;5075418;28;20285;-65
2021/12/01 11:37:16;;;;;;;;;;;;;;;;;;5075823;28;19974;-65
2021/12/01 11:39:42;;;;;;;;;;;;;;;;;;5075886;28;20398;-64
2021/12/01 11:42:08;;;;;;;;;;;;;;;;;;5075562;28;19908;-64
2021/12/01 11:44:34;;;;;;;;;;;;;;;;;;5075637;28;19908;-65
2021/12/01 11:47:00;;;;;;;;;;;;;;;;;;5075626;28;19916;-66
2021/12/01 11:49:26;;;;;;;;;;;;;;;;;;5075780;28;19958;-63
2021/12/01 11:51:52;;;;;;;;;;;;;;;;;;5057641;28;19935;-65
2021/12/01 11:54:19;;;;;;;;;;;;;;;;;;5075701;28;19908;-66
2021/12/01 11:56:45;;;;;;;;;;;;;;;;;;5075721;28;19912;-65
2021/12/01 11:59:11;;;;;;;;;;;;;;;;;;5075626;28;20421;-65
2021/12/01 12:01:36;;;;;;;;;;;;;;;;;;5076467;28;19935;-66
2021/12/01 12:04:04;;;;;;;;;;;;;;;;;;5076038;28;19909;-64
2021/12/01 12:06:30;;;;;;;;;;;;;;;;;;5074718;28;20372;-65
2021/12/01 12:08:56;;;;;;;;;;;;;;;;;;5075316;28;19951;-64
2021/12/01 12:11:22;;;;;;;;;;;;;;;;;;5075094;28;20265;-64
2021/12/01 12:13:48;;;;;;;;;;;;;;;;;;5075102;28;19912;-65
2021/12/01 12:16:14;;;;;;;;;;;;;;;;;;5075521;28;19913;-64
2021/12/01 12:18:40;;;;;;;;;;;;;;;;;;5075373;28;20319;-65
2021/12/01 12:21:06;;;;;;;;;;;;;;;;;;5075019;28;19958;-64
2021/12/01 12:23:32;;;;;;;;;;;;;;;;;;5075134;28;19908;-68
2021/12/01 12:25:58;;;;;;;;;;;;;;;;;;5075053;28;19916;-65
2021/12/01 12:28:24;;;;;;;;;;;;;;;;;;5074339;28;19913;-66
2021/12/01 12:30:49;;;;;;;;;;;;;;;;;;5073955;28;19920;-64
2021/12/01 12:33:15;;;;;;;;;;;;;;;;;;5074942;28;19909;-64
2021/12/01 12:35:41;;;;;;;;;;;;;;;;;;5074463;28;19909;-64
2021/12/01 12:38:08;;;;;;;;;;;;;;;;;;5074864;28;20368;-64
2021/12/01 12:40:33;;;;;;;;;;;;;;;;;;5074769;28;19908;-64
2021/12/01 12:42:59;;;;;;;;;;;;;;;;;;5074328;28;19961;-64
2021/12/01 12:45:26;;;;;;;;;;;;;;;;;;5074727;28;19997;-64
2021/12/01 12:47:52;;;;;;;;;;;;;;;;;;5074749;28;19924;-64
2021/12/01 12:50:18;;;;;;;;;;;;;;;;;;5074320;28;20391;-64
2021/12/01 12:52:44;;;;;;;;;;;;;;;;;;5074500;28;20001;-64
2021/12/01 12:55:10;;;;;;;;;;;;;;;;;;5074291;28;19970;-63
2021/12/01 12:57:35;;;;;;;;;;;;;;;;;;5074276;28;19908;-64
2021/12/01 13:00:01;;;;;;;;;;;;;;;;;;5074301;28;19948;-63
2021/12/01 13:02:27;;;;;;;;;;;;;;;;;;5074484;28;19908;-63
2021/12/01 13:05:02;;;;;;;;;;;;;;;;;;5074035;28;19908;-64
2021/12/01 13:07:28;;;;;;;;;;;;;;;;;;5073483;28;19920;-64
2021/12/01 13:09:54;;;;;;;;;;;;;;;;;;5073309;28;20368;-63
2021/12/01 13:12:20;;;;;;;;;;;;;;;;;;5073697;28;19989;-64
2021/12/01 13:14:48;;;;;;;;;;;;;;;;;;5074371;28;20129;-63
2021/12/01 13:17:13;;;;;;;;;;;;;;;;;;5074051;28;19912;-64
2021/12/01 13:19:39;;;;;;;;;;;;;;;;;;5074195;28;19922;-64
2021/12/01 13:22:05;;;;;;;;;;;;;;;;;;5073716;28;20002;-64
2021/12/01 13:24:31;;;;;;;;;;;;;;;;;;5073805;28;19963;-64
2021/12/01 13:26:57;;;;;;;;;;;;;;;;;;5073578;28;20380;-63
2021/12/01 13:29:23;;;;;;;;;;;;;;;;;;5074085;28;19909;-64
2021/12/01 13:31:49;;;;;;;;;;;;;;;;;;5073795;28;20406;-66
2021/12/01 13:34:14;;;;;;;;;;;;;;;;;;5073808;28;19931;-63
2021/12/01 13:36:41;;;;;;;;;;;;;;;;;;5073753;28;19947;-64
2021/12/01 13:39:06;;;;;;;;;;;;;;;;;;5073695;28;20300;-64
2021/12/01 13:41:32;;;;;;;;;;;;;;;;;;5072937;28;19905;-64
2021/12/01 13:43:58;;;;;;;;;;;;;;;;;;5073621;28;20011;-63
2021/12/01 13:46:24;;;;;;;;;;;;;;;;;;5073566;28;19966;-63
2021/12/01 13:48:50;;;;;;;;;;;;;;;;;;5073068;28;20372;-64
2021/12/01 13:51:16;;;;;;;;;;;;;;;;;;5073079;28;19919;-64
2021/12/01 13:53:42;;;;;;;;;;;;;;;;;;5072964;28;19908;-64
2021/12/01 13:56:08;;;;;;;;;;;;;;;;;;5071753;28;19912;-64
2021/12/01 13:58:33;;;;;;;;;;;;;;;;;;5073396;28;19908;-65
2021/12/01 14:01:03;;;;;;;;;;;;;;;;;;5055112;28;19909;-64
2021/12/01 14:03:30;;;;;;;;;;;;;;;;;;5073283;28;19915;-64
2021/12/01 14:05:56;;;;;;;;;;;;;;;;;;5072944;28;19917;-64
2021/12/01 14:08:22;;;;;;;;;;;;;;;;;;5073112;28;19924;-64
2021/12/01 14:10:48;;;;;;;;;;;;;;;;;;5072604;28;19909;-63
2021/12/01 14:13:14;;;;;;;;;;;;;;;;;;5072805;28;19912;-64
2021/12/01 14:15:40;;;;;;;;;;;;;;;;;;5073070;28;19908;-64
2021/12/01 14:18:06;;;;;;;;;;;;;;;;;;5073862;28;20408;-68
2021/12/01 14:20:32;;;;;;;;;;;;;;;;;;5073954;28;20205;-66
2021/12/01 14:22:57;;;;;;;;;;;;;;;;;;5073486;28;20414;-65
2021/12/01 14:25:23;;;;;;;;;;;;;;;;;;5072965;28;19909;-65
2021/12/01 14:27:49;;;;;;;;;;;;;;;;;;5072537;28;19920;-65
2021/12/01 14:30:17;;;;;;;;;;;;;;;;;;5072907;28;20365;-64
2021/12/01 14:32:43;;;;;;;;;;;;;;;;;;5072752;28;20335;-65
2021/12/01 14:35:09;;;;;;;;;;;;;;;;;;5072931;28;19940;-64
2021/12/01 14:37:34;;;;;;;;;;;;;;;;;;5072458;28;19912;-65
2021/12/01 14:40:00;;;;;;;;;;;;;;;;;;5072881;28;20380;-65
2021/12/01 14:42:26;;;;;;;;;;;;;;;;;;5072656;28;19916;-65
2021/12/01 14:44:52;;;;;;;;;;;;;;;;;;5072739;28;19908;-65
2021/12/01 14:47:21;;;;;;;;;;;;;;;;;;5072657;28;19920;-64
2021/12/01 14:49:47;;;;;;;;;;;;;;;;;;5072473;28;19966;-65
2021/12/01 14:52:12;;;;;;;;;;;;;;;;;;5071624;28;19916;-64
2021/12/01 14:54:39;;;;;;;;;;;;;;;;;;5072834;28;19909;-65
2021/12/01 14:57:05;;;;;;;;;;;;;;;;;;5072037;28;19927;-65
2021/12/01 14:59:31;;;;;;;;;;;;;;;;;;5072757;28;20281;-65
2021/12/01 15:01:57;;;;;;;;;;;;;;;;;;5072580;28;19912;-64
2021/12/01 15:04:23;;;;;;;;;;;;;;;;;;5072525;28;19908;-64
2021/12/01 15:06:48;;;;;;;;;;;;;;;;;;5071765;28;19920;-64
2021/12/01 15:09:14;;;;;;;;;;;;;;;;;;5072311;28;20380;-65
2021/12/01 15:11:44;;;;;;;;;;;;;;;;;;5072381;28;19920;-64
2021/12/01 15:14:10;;;;;;;;;;;;;;;;;;5072677;28;19989;-64
2021/12/01 15:16:36;;;;;;;;;;;;;;;;;;5072582;28;19955;-64
2021/12/01 15:19:02;;;;;;;;;;;;;;;;;;5072345;28;19915;-65
2021/12/01 15:21:27;;;;;;;;;;;;;;;;;;5071999;28;20296;-65
2021/12/01 15:23:53;;;;;;;;;;;;;;;;;;5072563;28;19909;-65
2021/12/01 15:26:20;;;;;;;;;;;;;;;;;;5072530;28;19916;-64
2021/12/01 15:28:47;;;;;;;;;;;;;;;;;;5072433;28;19916;-64
2021/12/01 15:31:13;;;;;;;;;;;;;;;;;;5072478;28;19908;-65
2021/12/01 15:33:39;;;;;;;;;;;;;;;;;;5072271;28;19934;-65
2021/12/01 15:36:05;;;;;;;;;;;;;;;;;;5072283;28;19913;-65
2021/12/01 15:38:31;;;;;;;;;;;;;;;;;;5054256;28;19991;-65
2021/12/01 15:40:57;;;;;;;;;;;;;;;;;;5075738;28;19913;-65
2021/12/01 15:43:23;;;;;;;;;;;;;;;;;;5075895;28;20295;-65
2021/12/01 15:45:49;;;;;;;;;;;;;;;;;;5075807;28;19917;-65
2021/12/01 15:48:14;;;;;;;;;;;;;;;;;;5075212;28;19909;-64
2021/12/01 15:50:42;;;;;;;;;;;;;;;;;;5075285;28;19912;-65
2021/12/01 15:53:08;;;;;;;;;;;;;;;;;;5075522;28;20361;-64
2021/12/01 15:55:34;;;;;;;;;;;;;;;;;;5075649;28;19923;-64
2021/12/01 15:58:01;;;;;;;;;;;;;;;;;;5075291;28;20343;-64
2021/12/01 16:00:29;;;;;;;;;;;;;;;;;;5074661;28;19959;-65
2021/12/01 16:02:57;;;;;;;;;;;;;;;;;;5074923;28;19908;-65
2021/12/01 16:05:22;;;;;;;;;;;;;;;;;;5075101;28;19908;-64
2021/12/01 16:07:48;;;;;;;;;;;;;;;;;;5075320;28;20375;-64
2021/12/01 16:10:14;;;;;;;;;;;;;;;;;;5075460;28;19916;-65
2021/12/01 16:12:41;;;;;;;;;;;;;;;;;;5075207;28;20016;-64
2021/12/01 16:15:07;;;;;;;;;;;;;;;;;;5075432;28;20277;-64
2021/12/01 16:17:37;;;;;;;;;;;;;;;;;;5075246;28;20003;-69
2021/12/01 16:20:03;;;;;;;;;;;;;;;;;;5075294;28;19978;-65
2021/12/01 16:22:29;;;;;;;;;;;;;;;;;;5074934;28;20348;-65
2021/12/01 16:24:54;;;;;;;;;;;;;;;;;;5075222;28;20015;-64
2021/12/01 16:27:21;;;;;;;;;;;;;;;;;;5074348;28;19917;-64
2021/12/01 16:29:46;;;;;;;;;;;;;;;;;;5074559;28;20280;-65
2021/12/01 16:32:12;;;;;;;;;;;;;;;;;;5074220;28;19979;-65
2021/12/01 16:34:38;;;;;;;;;;;;;;;;;;5074519;28;19970;-68
2021/12/01 16:37:07;;;;;;;;;;;;;;;;;;5075433;28;19908;-66
2021/12/01 16:39:32;;;;;;;;;;;;;;;;;;5074860;28;19934;-67
2021/12/01 16:41:58;;;;;;;;;;;;;;;;;;5073983;28;20343;-69